NRT weather

Narita International Airport
Tokyo, Chiba Prefecture, Japan

Public forecast

Using degrees Celsius for public forecast. Weather courtesy of forecast.io.

METAR (pilot weather report)

Retrieved 2017/03/24 21:30 UTC (23 minutes ago):

RJAA 242130Z 02007KT 9999 FEW030 02/M05 Q1020 NOSIG

TAF (pilot weather forecast)

Retrieved 2017/03/24 18:00 UTC (4 hours ago):

TAF RJAA 241705Z 2418/2600 34005KT 9999 FEW030 BECMG 2504/2506 10010KT BECMG 2512/2515 04005KT